Brande, Denmark
Current Conditions -  °F | °C
As of 6:50 AM on Wednesday 22 Oct 2014 (Local Time) from EKBI Reporting Station
Light Fog Light Fog  
Wind Chill: 38°   Ceiling: Unl
Heat Index: 41°   Visibility: 3mi
Dew Point: 41°   Wind: 5mph
Humidity: 100%   Direction: 10°N
Pressure: 29.5"   Gusts: NA
Location:  55.94°N, 9.13°E
Report Text: EKBI 220450Z 01004KT 5000 R09/0700 R27/P1500U BCFG FEW12005/05 Q0999
Loading
Personal Weather Stations






























Interactive Weather Map
Tropical Storm Tracking
New forecast layout! Learn more

10-Day Weather Forecast

Advertisements
Track Severe Weather on mobile